Time;durP1;ratioP1;P1;durP2;ratioP2;P2;SDS_P1;SDS_P2;PMS_P1;PMS_P2;Temp;Humidity;BMP_temperature;BMP_pressure;BME280_temperature;BME280_humidity;BME280_pressure;Samples;Min_cycle;Max_cycle;Signal;HPM_P1;HPM_P2
2021/04/30 05:55:03;;;;;;;11.43;2.33;;;;;;;;;;5083041;28;20390;-67
2021/04/30 05:57:29;;;;;;;14.25;3.22;;;;;;;;;;5076040;28;20017;-67
2021/04/30 05:59:54;;;;;;;9.88;3.13;;;;;;;;;;5055110;28;20099;-67
2021/04/30 06:02:20;;;;;;;8.88;2.70;;;;;;;;;;5070720;28;20016;-67
2021/04/30 06:04:45;;;;;;;8.80;3.30;;;;;;;;;;5063564;28;20017;-67
2021/04/30 06:07:10;;;;;;;12.88;3.47;;;;;;;;;;5062909;28;20962;-67
2021/04/30 06:09:36;;;;;;;9.68;2.83;;;;;;;;;;5062881;28;20022;-67
2021/04/30 06:12:01;;;;;;;6.47;2.92;;;;;;;;;;5075299;28;20422;-66
2021/04/30 06:14:30;;;;;;;9.60;3.33;;;;;;;;;;5068498;28;20067;-67
2021/04/30 06:17:00;;;;;;;12.10;4.00;;;;;;;;;;5069136;28;20024;-66
2021/04/30 06:19:25;;;;;;;8.10;3.15;;;;;;;;;;5054591;28;20025;-66
2021/04/30 06:21:51;;;;;;;11.63;3.35;;;;;;;;;;5059415;28;20025;-66
2021/04/30 06:24:16;;;;;;;13.20;4.35;;;;;;;;;;5070267;28;20014;-66
2021/04/30 06:26:42;;;;;;;11.13;3.28;;;;;;;;;;5055112;28;20029;-66
2021/04/30 06:29:10;;;;;;;13.75;4.68;;;;;;;;;;5065833;28;20024;-66
2021/04/30 06:31:36;;;;;;;13.90;3.65;;;;;;;;;;5056346;28;20032;-66
2021/04/30 06:34:02;;;;;;;14.80;3.90;;;;;;;;;;5078126;28;20494;-67
2021/04/30 06:36:27;;;;;;;9.52;3.75;;;;;;;;;;5074594;28;20110;-67
2021/04/30 06:38:52;;;;;;;6.85;2.60;;;;;;;;;;5059805;28;20018;-67
2021/04/30 06:41:18;;;;;;;9.60;3.60;;;;;;;;;;5060037;28;20024;-67
2021/04/30 06:43:43;;;;;;;11.00;3.30;;;;;;;;;;5070426;28;20050;-66
2021/04/30 06:46:09;;;;;;;10.98;2.72;;;;;;;;;;5068154;28;20064;-67
2021/04/30 06:48:34;;;;;;;9.70;3.10;;;;;;;;;;5068657;28;20453;-67
2021/04/30 06:51:00;;;;;;;8.02;2.35;;;;;;;;;;5071874;28;20032;-67
2021/04/30 06:53:25;;;;;;;5.70;2.60;;;;;;;;;;5069044;28;20060;-65
2021/04/30 06:55:51;;;;;;;13.02;2.97;;;;;;;;;;5048494;28;20464;-66
2021/04/30 06:58:17;;;;;;;7.55;3.00;;;;;;;;;;5048567;28;20097;-66
2021/04/30 07:00:42;;;;;;;4.55;1.98;;;;;;;;;;5050405;28;20071;-66
2021/04/30 07:03:07;;;;;;;6.65;2.40;;;;;;;;;;5048694;28;20398;-66
2021/04/30 07:05:33;;;;;;;6.05;1.73;;;;;;;;;;5047680;28;20025;-65
2021/04/30 07:08:02;;;;;;;10.05;2.17;;;;;;;;;;5045917;28;20071;-65
2021/04/30 07:10:28;;;;;;;6.32;2.03;;;;;;;;;;5035629;28;20383;-67
2021/04/30 07:12:54;;;;;;;4.53;2.33;;;;;;;;;;5035131;28;20033;-66
2021/04/30 07:15:19;;;;;;;11.38;2.38;;;;;;;;;;5034774;28;20473;-67
2021/04/30 07:17:45;;;;;;;11.27;2.08;;;;;;;;;;5052506;28;20127;-67
2021/04/30 07:20:11;;;;;;;5.20;2.22;;;;;;;;;;5069631;28;20024;-68
2021/04/30 07:22:36;;;;;;;12.63;2.15;;;;;;;;;;5040974;28;20065;-68
2021/04/30 07:25:02;;;;;;;3.78;1.83;;;;;;;;;;5037795;28;20029;-68
2021/04/30 07:27:28;;;;;;;5.35;1.80;;;;;;;;;;5042431;28;20013;-67
2021/04/30 07:29:54;;;;;;;6.90;2.20;;;;;;;;;;5042827;28;20025;-68
2021/04/30 07:32:19;;;;;;;4.07;1.63;;;;;;;;;;5044484;28;20378;-67
2021/04/30 07:34:45;;;;;;;4.43;1.60;;;;;;;;;;5039883;28;20029;-68
2021/04/30 07:37:11;;;;;;;10.57;1.92;;;;;;;;;;5052085;28;20021;-66
2021/04/30 07:39:37;;;;;;;3.63;1.55;;;;;;;;;;5052421;28;20021;-68
2021/04/30 07:42:03;;;;;;;12.30;1.70;;;;;;;;;;5057980;28;20017;-68
2021/04/30 07:44:28;;;;;;;7.25;2.53;;;;;;;;;;5051064;28;20025;-68
2021/04/30 07:46:54;;;;;;;5.47;1.67;;;;;;;;;;5051529;28;20026;-67
2021/04/30 07:49:19;;;;;;;5.45;1.88;;;;;;;;;;5044573;28;20025;-68
2021/04/30 07:51:45;;;;;;;3.90;1.90;;;;;;;;;;5040498;28;20013;-69
2021/04/30 07:54:11;;;;;;;4.95;1.58;;;;;;;;;;5046157;28;20132;-68
2021/04/30 07:56:36;;;;;;;3.90;1.48;;;;;;;;;;5048391;28;20160;-70
2021/04/30 07:59:02;;;;;;;7.82;2.30;;;;;;;;;;5059568;28;20439;-70
2021/04/30 08:01:28;;;;;;;6.82;2.08;;;;;;;;;;5063527;28;20024;-71
2021/04/30 08:03:54;;;;;;;5.15;1.77;;;;;;;;;;5063043;28;20044;-69
2021/04/30 08:06:19;;;;;;;5.25;1.80;;;;;;;;;;5055924;28;20052;-69
2021/04/30 08:08:45;;;;;;;6.40;2.80;;;;;;;;;;5068611;28;20025;-70
2021/04/30 08:11:10;;;;;;;4.18;2.15;;;;;;;;;;5058752;28;20016;-69
2021/04/30 08:13:35;;;;;;;16.65;3.50;;;;;;;;;;5062755;28;20033;-69
2021/04/30 08:16:01;;;;;;;36.88;14.55;;;;;;;;;;5065383;28;20021;-70
2021/04/30 08:18:27;;;;;;;7.13;2.40;;;;;;;;;;5055836;28;20059;-70
2021/04/30 08:20:52;;;;;;;5.53;2.00;;;;;;;;;;5072475;28;20056;-70
2021/04/30 08:23:18;;;;;;;4.35;1.98;;;;;;;;;;5063252;28;20086;-70
2021/04/30 08:25:44;;;;;;;8.30;2.40;;;;;;;;;;5067152;28;20446;-68
2021/04/30 08:28:09;;;;;;;4.43;2.30;;;;;;;;;;5068354;28;20013;-68
2021/04/30 08:30:34;;;;;;;4.25;2.03;;;;;;;;;;5055349;28;20424;-69
2021/04/30 08:33:00;;;;;;;5.95;2.40;;;;;;;;;;5067694;28;20028;-69
2021/04/30 08:35:25;;;;;;;4.38;1.70;;;;;;;;;;5060837;28;20032;-70
2021/04/30 08:37:51;;;;;;;5.18;2.13;;;;;;;;;;5053579;28;20476;-71
2021/04/30 08:40:18;;;;;;;9.65;2.92;;;;;;;;;;5040273;28;20013;-72
2021/04/30 08:42:43;;;;;;;4.18;2.10;;;;;;;;;;5044919;28;20032;-69
2021/04/30 08:45:12;;;;;;;6.85;2.20;;;;;;;;;;5032026;28;20013;-69
2021/04/30 08:47:38;;;;;;;4.40;1.92;;;;;;;;;;5058315;28;20023;-69
2021/04/30 08:50:03;;;;;;;6.35;2.00;;;;;;;;;;5062114;28;20037;-69
2021/04/30 08:52:29;;;;;;;4.88;1.13;;;;;;;;;;5057957;28;20375;-70
2021/04/30 08:54:56;;;;;;;7.35;2.05;;;;;;;;;;5057060;28;20084;-70
2021/04/30 08:57:26;;;;;;;3.63;1.63;;;;;;;;;;5061814;28;20017;-68
2021/04/30 08:59:56;;;;;;;3.72;2.00;;;;;;;;;;5063684;28;20413;-68
2021/04/30 09:02:23;;;;;;;3.47;1.88;;;;;;;;;;5069563;28;20136;-69
2021/04/30 09:04:49;;;;;;;7.97;1.90;;;;;;;;;;5057192;28;20042;-68
2021/04/30 09:07:15;;;;;;;3.92;1.80;;;;;;;;;;5070836;28;20397;-68
2021/04/30 09:09:59;;;;;;;4.95;1.75;;;;;;;;;;5066824;28;20020;-68
2021/04/30 09:12:25;;;;;;;7.85;1.92;;;;;;;;;;5063719;28;20029;-69
2021/04/30 09:14:50;;;;;;;7.30;2.50;;;;;;;;;;5066414;28;20040;-70
2021/04/30 09:17:16;;;;;;;6.82;2.15;;;;;;;;;;5067213;28;20090;-69
2021/04/30 09:19:47;;;;;;;2.60;2.00;;;;;;;;;;5060324;28;20462;-68
2021/04/30 09:22:14;;;;;;;3.38;2.30;;;;;;;;;;5066779;28;20070;-70
2021/04/30 09:24:40;;;;;;;5.03;2.85;;;;;;;;;;5054624;28;20425;-69
2021/04/30 09:27:06;;;;;;;4.38;3.05;;;;;;;;;;5070292;28;20480;-68
2021/04/30 09:29:32;;;;;;;9.32;4.25;;;;;;;;;;5067053;28;20021;-70
2021/04/30 09:31:59;;;;;;;7.70;2.80;;;;;;;;;;5063107;28;20025;-70
2021/04/30 09:34:26;;;;;;;7.80;2.72;;;;;;;;;;5054873;28;20029;-69
2021/04/30 09:36:56;;;;;;;8.98;3.30;;;;;;;;;;5064962;28;20025;-70
2021/04/30 09:39:21;;;;;;;4.47;3.22;;;;;;;;;;5040247;28;20426;-70
2021/04/30 09:42:06;;;;;;;8.80;3.35;;;;;;;;;;5038776;28;20158;-71
2021/04/30 09:44:36;;;;;;;8.57;3.67;;;;;;;;;;5055475;28;20021;-71
2021/04/30 09:47:14;;;;;;;4.90;3.40;;;;;;;;;;5041789;28;20467;-69
2021/04/30 09:49:40;;;;;;;5.40;3.20;;;;;;;;;;5040561;28;20025;-70
2021/04/30 09:52:07;;;;;;;6.95;3.33;;;;;;;;;;5042977;28;20033;-70
2021/04/30 09:54:33;;;;;;;7.57;4.70;;;;;;;;;;5040221;28;20460;-70
2021/04/30 09:57:15;;;;;;;9.68;4.40;;;;;;;;;;5043040;28;20025;-70
2021/04/30 09:59:42;;;;;;;10.45;4.07;;;;;;;;;;5034722;28;20017;-71
2021/04/30 10:02:12;;;;;;;7.55;3.67;;;;;;;;;;5057340;28;20022;-70
2021/04/30 10:04:38;;;;;;;6.63;4.28;;;;;;;;;;5060031;28;20065;-70
2021/04/30 10:07:04;;;;;;;11.43;3.88;;;;;;;;;;5054999;28;20032;-70
2021/04/30 10:09:30;;;;;;;10.40;4.30;;;;;;;;;;5037363;28;20029;-69
2021/04/30 10:11:55;;;;;;;7.38;4.38;;;;;;;;;;5041362;28;20470;-70
2021/04/30 10:14:23;;;;;;;6.18;3.50;;;;;;;;;;5035563;28;20025;-69
2021/04/30 10:16:48;;;;;;;8.27;3.70;;;;;;;;;;5043324;28;20021;-71
2021/04/30 10:19:14;;;;;;;6.28;4.13;;;;;;;;;;5039143;28;20048;-69
2021/04/30 10:21:41;;;;;;;7.65;4.10;;;;;;;;;;5042543;28;20382;-70
2021/04/30 10:24:11;;;;;;;10.90;4.60;;;;;;;;;;5038363;28;20033;-70
2021/04/30 10:26:37;;;;;;;21.30;5.60;;;;;;;;;;5042293;28;20037;-70
2021/04/30 10:29:03;;;;;;;11.20;4.75;;;;;;;;;;5031395;28;20389;-69
2021/04/30 10:31:31;;;;;;;6.68;3.83;;;;;;;;;;5042267;28;20499;-70
2021/04/30 10:33:59;;;;;;;11.70;4.68;;;;;;;;;;5042351;28;20033;-69
2021/04/30 10:36:29;;;;;;;11.55;5.78;;;;;;;;;;5044710;28;20120;-71
2021/04/30 10:38:56;;;;;;;15.32;4.80;;;;;;;;;;5039372;28;20099;-70
2021/04/30 10:41:28;;;;;;;23.70;6.28;;;;;;;;;;5047169;28;20017;-67
2021/04/30 10:44:13;;;;;;;8.65;5.20;;;;;;;;;;5051958;28;20049;-67
2021/04/30 10:46:38;;;;;;;10.35;5.43;;;;;;;;;;5055495;28;20042;-69
2021/04/30 10:49:15;;;;;;;17.27;6.38;;;;;;;;;;5039341;28;20061;-70
2021/04/30 10:51:40;;;;;;;10.23;5.05;;;;;;;;;;5053081;28;20039;-68
2021/04/30 10:54:24;;;;;;;8.88;5.53;;;;;;;;;;5061995;28;20045;-71
2021/04/30 10:57:03;;;;;;;12.27;6.13;;;;;;;;;;5060390;28;20057;-69
2021/04/30 10:59:49;;;;;;;10.27;5.30;;;;;;;;;;5067540;28;20366;-71
2021/04/30 11:02:34;;;;;;;11.13;5.07;;;;;;;;;;5057828;28;20024;-70
2021/04/30 11:05:10;;;;;;;11.68;5.07;;;;;;;;;;5058439;28;20024;-71
2021/04/30 11:07:40;;;;;;;8.07;4.18;;;;;;;;;;5065208;28;20024;-71
2021/04/30 11:10:30;;;;;;;8.43;5.25;;;;;;;;;;5057372;28;20016;-69
2021/04/30 11:12:56;;;;;;;;;;;;;;;;;;5046483;28;20023;-71
2021/04/30 11:15:21;;;;;;;17.40;4.93;;;;;;;;;;5069953;28;19904;-72
2021/04/30 11:17:48;;;;;;;13.85;4.88;;;;;;;;;;5061064;28;20013;-69
2021/04/30 11:20:17;;;;;;;9.63;4.15;;;;;;;;;;5063737;28;20385;-69
2021/04/30 11:23:02;;;;;;;9.48;4.45;;;;;;;;;;5045203;28;20028;-74
2021/04/30 11:25:28;;;;;;;8.93;4.10;;;;;;;;;;5062700;28;20017;-73
2021/04/30 11:27:55;;;;;;;8.35;5.32;;;;;;;;;;5072157;28;20023;-71
2021/04/30 11:30:21;;;;;;;8.57;5.30;;;;;;;;;;5056976;28;20017;-69
2021/04/30 11:32:51;;;;;;;6.53;4.63;;;;;;;;;;5068226;28;20123;-70
2021/04/30 11:35:17;;;;;;;6.35;3.97;;;;;;;;;;5047676;28;20036;-68
2021/04/30 11:37:42;;;;;;;6.43;3.80;;;;;;;;;;5062904;28;20501;-70
2021/04/30 11:40:11;;;;;;;10.95;4.85;;;;;;;;;;5064434;28;20016;-69
2021/04/30 11:42:37;;;;;;;8.40;4.07;;;;;;;;;;5062175;28;20009;-69
2021/04/30 11:45:03;;;;;;;7.35;3.97;;;;;;;;;;5050338;28;20059;-68
2021/04/30 11:47:29;;;;;;;6.88;4.07;;;;;;;;;;5059597;28;20024;-68
2021/04/30 11:49:56;;;;;;;10.57;4.72;;;;;;;;;;5059459;28;20024;-69
2021/04/30 11:52:36;;;;;;;8.60;4.63;;;;;;;;;;5062501;28;20548;-68
2021/04/30 11:55:03;;;;;;;5.90;4.10;;;;;;;;;;5062114;28;20044;-68
2021/04/30 11:57:29;;;;;;;13.95;4.50;;;;;;;;;;5065074;28;20016;-69
2021/04/30 11:59:55;;;;;;;14.23;5.65;;;;;;;;;;5059314;28;20081;-69
2021/04/30 12:02:23;;;;;;;9.25;5.93;;;;;;;;;;5066885;28;20458;-69
2021/04/30 12:04:51;;;;;;;8.50;5.70;;;;;;;;;;5066060;28;20535;-70
2021/04/30 12:07:17;;;;;;;16.50;5.80;;;;;;;;;;5061698;28;20086;-70
2021/04/30 12:09:43;;;;;;;11.80;6.10;;;;;;;;;;5067199;28;20016;-70
2021/04/30 12:12:10;;;;;;;29.75;5.40;;;;;;;;;;5068361;28;20042;-70
2021/04/30 12:14:42;;;;;;;10.20;5.07;;;;;;;;;;5072245;28;20035;-73
2021/04/30 12:17:08;;;;;;;10.10;4.00;;;;;;;;;;5064802;28;20024;-74
2021/04/30 12:19:33;;;;;;;19.83;4.65;;;;;;;;;;5062939;28;20021;-76
2021/04/30 12:21:59;;;;;;;12.90;5.35;;;;;;;;;;5066594;28;20494;-73
2021/04/30 12:24:24;;;;;;;30.80;6.88;;;;;;;;;;5062461;28;20374;-74
2021/04/30 12:26:49;;;;;;;14.63;6.07;;;;;;;;;;5071705;28;20012;-72
2021/04/30 12:29:15;;;;;;;12.95;5.45;;;;;;;;;;5063249;28;20100;-72
2021/04/30 12:31:46;;;;;;;12.43;5.68;;;;;;;;;;5052872;28;20099;-72
2021/04/30 12:34:12;;;;;;;13.48;5.97;;;;;;;;;;5039750;28;21067;-71
2021/04/30 12:36:38;;;;;;;13.00;5.22;;;;;;;;;;5041493;28;20018;-72
2021/04/30 12:39:08;;;;;;;10.75;5.30;;;;;;;;;;5041350;28;20024;-71
2021/04/30 12:41:34;;;;;;;9.55;6.22;;;;;;;;;;5042355;28;20024;-72
2021/04/30 12:44:01;;;;;;;9.32;6.05;;;;;;;;;;5039014;28;20124;-72
2021/04/30 12:46:29;;;;;;;13.50;6.13;;;;;;;;;;5042237;28;20484;-73
2021/04/30 12:48:55;;;;;;;8.68;5.68;;;;;;;;;;5049065;28;20130;-70
2021/04/30 12:51:28;;;;;;;7.88;4.82;;;;;;;;;;5064018;28;20088;-72
2021/04/30 12:53:54;;;;;;;8.77;4.80;;;;;;;;;;5063998;28;20055;-72
2021/04/30 12:56:33;;;;;;;9.57;5.25;;;;;;;;;;5068479;28;20012;-71
2021/04/30 12:59:19;;;;;;;9.88;4.72;;;;;;;;;;5041855;28;20465;-72
2021/04/30 13:01:45;;;;;;;17.80;4.35;;;;;;;;;;5060874;28;20038;-73
2021/04/30 13:04:16;;;;;;;10.25;5.18;;;;;;;;;;5059985;28;20111;-71
2021/04/30 13:06:43;;;;;;;10.60;4.05;;;;;;;;;;5071133;28;20052;-70
2021/04/30 13:09:13;;;;;;;5.20;3.70;;;;;;;;;;5065120;28;20017;-71
2021/04/30 13:11:39;;;;;;;8.32;4.32;;;;;;;;;;5061703;28;20020;-70
2021/04/30 13:14:05;;;;;;;5.03;3.95;;;;;;;;;;5057799;28;20066;-69
2021/04/30 13:16:34;;;;;;;5.47;3.25;;;;;;;;;;5068958;28;20491;-71
2021/04/30 13:19:04;;;;;;;10.20;4.43;;;;;;;;;;5057764;28;20024;-72
2021/04/30 13:21:30;;;;;;;8.40;4.45;;;;;;;;;;5067664;28;20023;-71
2021/04/30 13:24:08;;;;;;;7.60;4.18;;;;;;;;;;5047291;28;20115;-71
2021/04/30 13:26:34;;;;;;;8.68;4.05;;;;;;;;;;5058261;28;20056;-71
